Lucas, Mississippi
Current Conditions -  °F | °C
As of 9:15 AM on Wednesday 26 Nov 2014 (Local Time) from K1R7 Reporting Station
Clear Clear  
Wind Chill:   Ceiling: Unl
Heat Index:   Visibility: 10mi
Dew Point:   Wind: 7mph
Humidity: 57%   Direction: 180°S
Pressure: 30.24"   Gusts: NA
Location:  31.5969°N, 89.8752°W
Report Text: K1R7 261515Z AUTO 18006KT 10SM CLR 09/01 A3024 RMK AO2
Loading
Personal Weather Stations






























Interactive Weather Map New forecast layout! Learn more

10-Day Weather Forecast

Advertisements
Track Severe Weather on mobile